Time;durP1;ratioP1;P1;durP2;ratioP2;P2;SDS_P1;SDS_P2;PMS_P1;PMS_P2;Temp;Humidity;BMP_temperature;BMP_pressure;BME280_temperature;BME280_humidity;BME280_pressure;Samples;Min_cycle;Max_cycle;Signal;HPM_P1;HPM_P2
2024/01/22 00:00:58;;;;;;;24.30;8.80;;;;;;;1.45;69.74;101291.07;110993;1208;138154;-70
2024/01/22 00:03:23;;;;;;;26.20;9.60;;;;;;;1.45;69.63;101285.96;111117;1205;99144;-70
2024/01/22 00:05:48;;;;;;;20.40;8.20;;;;;;;1.44;69.53;101283.85;111183;1209;99108;-70
2024/01/22 00:08:14;;;;;;;24.80;9.30;;;;;;;1.43;69.61;101283.66;111041;1206;138445;-68
2024/01/22 00:10:39;;;;;;;24.60;9.50;;;;;;;1.42;69.63;101275.56;111196;1206;99054;-69
2024/01/22 00:13:05;;;;;;;24.60;8.50;;;;;;;1.44;69.71;101277.34;111010;1209;138238;-69
2024/01/22 00:15:31;;;;;;;23.20;8.00;;;;;;;1.45;69.63;101272.76;111138;1206;98945;-69
2024/01/22 00:17:56;;;;;;;25.50;9.40;;;;;;;1.46;69.64;101276.98;111183;1206;98992;-68
2024/01/22 00:20:22;;;;;;;29.80;8.40;;;;;;;1.46;69.61;101270.65;110991;1206;138501;-68
2024/01/22 00:22:48;;;;;;;22.50;7.90;;;;;;;1.47;69.48;101268.71;111132;1208;107155;-69
2024/01/22 00:25:13;;;;;;;22.10;8.80;;;;;;;1.48;69.48;101264.14;111108;1209;138445;-69
2024/01/22 00:27:38;;;;;;;23.90;9.40;;;;;;;1.50;69.60;101260.45;111100;1209;98919;-68
2024/01/22 00:30:06;;;;;;;21.80;8.00;;;;;;;1.51;69.41;101258.16;111195;1205;99007;-68
2024/01/22 00:32:31;;;;;;;26.40;9.60;;;;;;;1.51;69.36;101254.45;111047;1208;138426;-68
2024/01/22 00:34:56;;;;;;;21.20;8.60;;;;;;;1.50;69.35;101252.17;111119;1206;98970;-69
2024/01/22 00:37:21;;;;;;;26.00;8.50;;;;;;;1.51;69.49;101249.89;111072;1208;137797;-68
2024/01/22 00:39:47;;;;;;;21.80;7.90;;;;;;;1.51;69.23;101255.16;111125;1206;99010;-69
2024/01/22 00:42:12;;;;;;;23.70;8.60;;;;;;;1.52;69.31;101258.16;111217;1206;97750;-69
2024/01/22 00:44:39;;;;;;;25.00;9.10;;;;;;;1.54;69.25;101254.12;110989;1208;136978;-68
2024/01/22 00:47:05;;;;;;;25.90;8.40;;;;;;;1.54;69.15;101260.81;111084;1209;100452;-68
2024/01/22 00:49:30;;;;;;;21.80;8.90;;;;;;;1.54;69.17;101259.05;111093;1206;139746;-68
2024/01/22 00:51:55;;;;;;;21.80;8.20;;;;;;;1.55;69.35;101255.71;111134;1208;112807;-68
2024/01/22 00:54:20;;;;;;;25.10;9.00;;;;;;;1.58;69.16;101259.95;111100;1208;99001;-68
2024/01/22 00:56:46;;;;;;;24.90;8.90;;;;;;;1.60;69.12;101253.96;111056;1206;138061;-69
2024/01/22 00:59:11;;;;;;;26.40;9.50;;;;;;;1.61;69.19;101251.86;111172;1206;98932;-69
2024/01/22 01:01:36;;;;;;;23.20;9.50;;;;;;;1.60;69.17;101239.88;111052;1208;138002;-69
2024/01/22 01:04:01;;;;;;;25.80;9.20;;;;;;;1.61;69.02;101235.82;111093;1208;97868;-68
2024/01/22 01:06:27;;;;;;;22.60;8.90;;;;;;;1.61;69.17;101231.07;111173;1206;100513;-69
2024/01/22 01:08:53;;;;;;;25.70;9.30;;;;;;;1.63;69.16;101226.84;111141;1209;138135;-68
2024/01/22 01:11:18;;;;;;;19.90;9.00;;;;;;;1.64;68.98;101214.34;111121;1206;98944;-68
2024/01/22 01:13:43;;;;;;;25.20;7.70;;;;;;;1.66;69.14;101201.13;111082;1212;138811;-68
2024/01/22 01:16:08;;;;;;;21.60;8.10;;;;;;;1.67;69.03;101195.14;111128;1209;99478;-68
2024/01/22 01:18:34;;;;;;;20.70;9.00;;;;;;;1.66;69.00;101193.38;111165;1208;98928;-68
2024/01/22 01:20:59;;;;;;;24.60;8.10;;;;;;;1.68;69.04;101194.44;111176;1205;99059;-68
2024/01/22 01:23:24;;;;;;;22.20;8.10;;;;;;;1.69;69.10;101193.56;111080;1206;98986;-69
2024/01/22 01:25:49;;;;;;;20.60;8.60;;;;;;;1.71;69.05;101198.85;111098;1209;138579;-69
2024/01/22 01:28:15;;;;;;;21.70;8.40;;;;;;;1.72;69.03;101188.45;111153;1206;99116;-69
2024/01/22 01:30:40;;;;;;;22.80;8.20;;;;;;;1.72;68.91;101191.80;111102;1208;138699;-69
2024/01/22 01:33:05;;;;;;;24.90;8.80;;;;;;;1.72;68.97;101176.83;111181;1209;99047;-68
2024/01/22 01:35:32;;;;;;;17.60;7.40;;;;;;;1.70;68.97;101173.30;111148;1206;99041;-69
2024/01/22 01:37:57;;;;;;;20.40;8.30;;;;;;;1.67;68.85;101169.42;111098;1206;138786;-68
2024/01/22 01:40:24;;;;;;;19.60;7.80;;;;;;;1.65;68.80;101167.66;111186;1207;99243;-69
2024/01/22 01:42:49;;;;;;;20.00;8.10;;;;;;;1.62;68.83;101158.67;111100;1208;138971;-69
2024/01/22 01:45:15;;;;;;;18.20;7.60;;;;;;;1.61;68.96;101153.21;111235;1208;99742;-69
2024/01/22 01:47:47;;;;;;;22.30;7.50;;;;;;;1.59;68.75;101148.64;111102;1222;107269;-68
2024/01/22 01:50:14;;;;;;;16.70;7.20;;;;;;;1.57;68.92;101139.30;111130;1208;138420;-69
2024/01/22 01:52:41;;;;;;;16.20;7.20;;;;;;;1.53;68.85;101131.71;111245;1209;98925;-68
2024/01/22 01:55:07;;;;;;;17.60;7.40;;;;;;;1.54;68.88;101126.61;111028;1209;138565;-69
2024/01/22 01:57:35;;;;;;;16.20;6.90;;;;;;;1.54;68.89;101128.02;111181;1208;99027;-69
2024/01/22 02:00:03;;;;;;;18.30;7.90;;;;;;;1.55;68.63;101130.66;111156;1206;99046;-69
2024/01/22 02:02:28;;;;;;;16.90;6.90;;;;;;;1.54;68.83;101127.66;111039;1208;138457;-68
2024/01/22 02:04:54;;;;;;;14.00;6.10;;;;;;;1.54;68.65;101121.33;111256;1206;98953;-68
2024/01/22 02:07:19;;;;;;;19.80;8.30;;;;;;;1.55;68.80;101112.87;111039;1212;139021;-69
2024/01/22 02:09:49;;;;;;;15.70;6.90;;;;;;;1.54;68.80;101115.69;111154;1206;99005;-69
2024/01/22 02:12:16;;;;;;;18.50;6.30;;;;;;;1.53;68.96;101100.71;111105;1206;98986;-69
2024/01/22 02:14:41;;;;;;;21.10;7.90;;;;;;;1.53;68.82;101096.84;111000;1206;138530;-69
2024/01/22 02:17:07;;;;;;;15.90;6.70;;;;;;;1.51;68.88;101099.84;111158;1208;98994;-69
2024/01/22 02:19:32;;;;;;;14.90;6.90;;;;;;;1.52;69.07;101098.25;111108;1206;137991;-69
2024/01/22 02:21:57;;;;;;;18.50;6.80;;;;;;;1.53;68.86;101093.85;111182;1209;99005;-68
2024/01/22 02:24:23;;;;;;;19.70;7.80;;;;;;;1.55;68.78;101087.86;111257;1206;97775;-68
2024/01/22 02:26:48;;;;;;;16.10;7.10;;;;;;;1.54;68.81;101077.65;111014;1208;138215;-68
2024/01/22 02:29:14;;;;;;;16.80;6.50;;;;;;;1.55;68.82;101067.79;111118;1207;99028;-69
2024/01/22 02:31:39;;;;;;;17.30;7.20;;;;;;;1.56;68.99;101060.56;111034;1206;139296;-69
2024/01/22 02:34:04;;;;;;;14.80;7.30;;;;;;;1.56;69.01;101057.58;111175;1209;99053;-68
2024/01/22 02:36:30;;;;;;;14.60;6.60;;;;;;;1.57;68.91;101056.87;111249;1206;99011;-68
2024/01/22 02:38:55;;;;;;;20.80;7.50;;;;;;;1.56;69.04;101051.93;110989;1209;137772;-68
2024/01/22 02:41:20;;;;;;;17.40;6.90;;;;;;;1.57;68.95;101051.05;111147;1206;99004;-68
2024/01/22 02:43:46;;;;;;;15.60;7.10;;;;;;;1.56;68.87;101047.54;111087;1209;138153;-69
2024/01/22 02:46:12;;;;;;;17.90;6.90;;;;;;;1.56;68.87;101047.01;111149;1218;99069;-69
2024/01/22 02:48:37;;;;;;;15.80;6.90;;;;;;;1.56;68.91;101047.89;111057;1208;138993;-68
2024/01/22 02:51:07;;;;;;;18.00;6.70;;;;;;;1.55;69.03;101046.48;111175;1209;112938;-69
2024/01/22 02:53:33;;;;;;;15.10;6.60;;;;;;;1.55;68.98;101039.26;111151;1208;99964;-68
2024/01/22 02:55:58;;;;;;;17.80;7.30;;;;;;;1.56;69.06;101036.43;110965;1209;138684;-69
2024/01/22 02:58:23;;;;;;;17.30;7.40;;;;;;;1.58;69.15;101028.16;111199;1209;99055;-68
2024/01/22 03:00:48;;;;;;;19.50;6.70;;;;;;;1.60;69.16;101023.58;111019;1205;140370;-69
2024/01/22 03:03:15;;;;;;;13.60;6.50;;;;;;;1.62;69.19;101015.11;111228;1209;98922;-68
2024/01/22 03:05:40;;;;;;;13.30;6.00;;;;;;;1.64;69.11;101012.65;111103;1206;99012;-69
2024/01/22 03:08:06;;;;;;;18.40;6.90;;;;;;;1.66;69.18;101005.61;111039;1208;139317;-69
2024/01/22 03:10:31;;;;;;;15.10;7.80;;;;;;;1.67;69.15;100999.08;111221;1208;99427;-68
2024/01/22 03:12:56;;;;;;;17.60;6.80;;;;;;;1.68;69.06;100998.03;110986;1206;140066;-68
2024/01/22 03:15:22;;;;;;;12.10;5.80;;;;;;;1.69;69.13;100995.92;111182;1206;98941;-68
2024/01/22 03:17:47;;;;;;;13.10;6.00;;;;;;;1.67;69.25;100986.93;111178;1208;99133;-68
2024/01/22 03:20:13;;;;;;;16.10;6.40;;;;;;;1.69;69.20;100986.40;111093;1209;138241;-68
2024/01/22 03:22:39;;;;;;;11.90;5.60;;;;;;;1.69;69.20;100987.28;111251;1206;99102;-68
2024/01/22 03:25:05;;;;;;;13.70;5.70;;;;;;;1.69;69.37;100984.63;111157;1206;139472;-68
2024/01/22 03:27:31;;;;;;;15.10;6.10;;;;;;;1.71;69.36;100974.59;111210;1206;99819;-69
2024/01/22 03:29:56;;;;;;;13.30;6.50;;;;;;;1.73;69.48;100971.06;111229;1206;98963;-68
2024/01/22 03:32:21;;;;;;;15.20;6.60;;;;;;;1.74;69.31;100960.67;111028;1208;138321;-68
2024/01/22 03:34:46;;;;;;;13.80;6.30;;;;;;;1.73;69.39;100949.39;111200;1208;99495;-69
2024/01/22 03:37:12;;;;;;;17.00;6.40;;;;;;;1.73;69.39;100943.23;111136;1206;140651;-68
2024/01/22 03:39:37;;;;;;;21.80;6.00;;;;;;;1.73;69.39;100939.54;111130;1208;100131;-69
2024/01/22 03:42:04;;;;;;;14.10;6.00;;;;;;;1.72;69.32;100935.30;111227;1206;98141;-69
2024/01/22 03:44:29;;;;;;;14.50;5.80;;;;;;;1.74;69.42;100933.72;111049;1208;137976;-68
2024/01/22 03:46:54;;;;;;;14.50;6.50;;;;;;;1.73;69.35;100929.66;111209;1208;100962;-69
2024/01/22 03:49:19;;;;;;;16.70;5.50;;;;;;;1.73;69.31;100929.84;111111;1208;138783;-68
2024/01/22 03:51:45;;;;;;;12.50;5.20;;;;;;;1.72;69.28;100933.20;111206;1209;98983;-68
2024/01/22 03:54:11;;;;;;;14.60;6.10;;;;;;;1.72;69.55;100935.84;111224;1209;98944;-68
2024/01/22 03:56:37;;;;;;;13.40;5.40;;;;;;;1.72;69.46;100936.19;110995;1208;137985;-69
2024/01/22 03:59:02;;;;;;;15.80;5.80;;;;;;;1.71;69.42;100930.02;111129;1209;99022;-68
2024/01/22 04:01:28;;;;;;;17.80;6.10;;;;;;;1.71;69.54;100928.61;111102;1218;139267;-69
2024/01/22 04:03:53;;;;;;;13.90;5.80;;;;;;;1.72;69.31;100917.17;111158;1208;100261;-69
2024/01/22 04:06:19;;;;;;;19.00;5.60;;;;;;;1.74;69.59;100916.64;111181;1209;99101;-69
2024/01/22 04:08:44;;;;;;;13.10;5.30;;;;;;;1.75;69.43;100916.80;111103;1218;138665;-68
2024/01/22 04:11:09;;;;;;;12.20;5.40;;;;;;;1.76;69.49;100913.98;111200;1208;100567;-69
2024/01/22 04:13:39;;;;;;;13.60;5.50;;;;;;;1.78;69.63;100909.23;111155;1206;138938;-68
2024/01/22 04:16:04;;;;;;;12.50;5.50;;;;;;;1.81;69.60;100906.04;111257;1208;99000;-69
2024/01/22 04:18:29;;;;;;;15.70;5.80;;;;;;;1.83;69.54;100901.62;111146;1208;99065;-68
2024/01/22 04:20:55;;;;;;;14.00;5.60;;;;;;;1.85;69.71;100897.04;111187;1207;138442;-68
2024/01/22 04:23:20;;;;;;;14.60;5.90;;;;;;;1.87;69.66;100894.02;111164;1208;100596;-69
2024/01/22 04:25:45;;;;;;;11.20;5.40;;;;;;;1.90;69.74;100892.08;111112;1209;139015;-69
2024/01/22 04:28:13;;;;;;;13.90;5.80;;;;;;;1.91;69.81;100891.19;111182;1206;112938;-68
2024/01/22 04:30:39;;;;;;;10.50;5.00;;;;;;;1.94;69.80;100894.70;111067;1206;138642;-68
2024/01/22 04:33:05;;;;;;;12.90;5.90;;;;;;;1.95;69.69;100887.83;111206;1205;100521;-69
2024/01/22 04:35:30;;;;;;;14.70;5.90;;;;;;;1.96;69.60;100880.78;111234;1208;99018;-68
2024/01/22 04:37:55;;;;;;;12.60;5.60;;;;;;;1.99;69.91;100876.00;111051;1206;138939;-69
2024/01/22 04:40:21;;;;;;;11.10;5.00;;;;;;;2.01;69.71;100871.59;111146;1208;99117;-69
2024/01/22 04:42:46;;;;;;;11.00;4.80;;;;;;;2.02;69.85;100873.35;111159;1205;138937;-68
2024/01/22 04:45:11;;;;;;;10.80;4.90;;;;;;;2.02;69.96;100869.64;111173;1206;99040;-68
2024/01/22 04:47:37;;;;;;;9.40;4.20;;;;;;;2.03;69.68;100867.00;111236;1208;99431;-68
2024/01/22 04:50:02;;;;;;;11.80;5.20;;;;;;;2.05;69.95;100860.11;111061;1206;137874;-69
2024/01/22 04:52:29;;;;;;;9.00;4.20;;;;;;;2.05;69.82;100846.36;111164;1207;98999;-68
2024/01/22 04:54:54;;;;;;;12.10;4.60;;;;;;;2.07;69.85;100845.12;111270;1208;137828;-68
2024/01/22 04:57:19;;;;;;;8.70;4.70;;;;;;;2.08;69.93;100838.77;111166;1208;97777;-68
2024/01/22 04:59:44;;;;;;;6.90;3.70;;;;;;;2.08;69.98;100835.42;111159;1206;99005;-68
2024/01/22 05:02:10;;;;;;;10.80;4.30;;;;;;;2.07;69.94;100834.91;111159;1209;138178;-69
2024/01/22 05:04:35;;;;;;;12.50;4.50;;;;;;;2.08;69.93;100826.42;111126;1206;98925;-68
2024/01/22 05:07:01;;;;;;;13.20;5.10;;;;;;;2.09;69.89;100832.77;111118;1209;139331;-68
2024/01/22 05:09:26;;;;;;;10.20;3.90;;;;;;;2.10;69.99;100828.18;111107;1205;98948;-68
2024/01/22 05:11:51;;;;;;;9.00;3.80;;;;;;;2.13;69.99;100830.98;111209;1206;99264;-68
2024/01/22 05:14:17;;;;;;;10.40;4.30;;;;;;;2.15;70.17;100828.33;111044;1206;138953;-68
2024/01/22 05:16:42;;;;;;;8.00;3.60;;;;;;;2.18;70.08;100838.36;111111;1206;99126;-69
2024/01/22 05:19:07;;;;;;;9.90;4.40;;;;;;;2.21;69.92;100841.33;111126;1206;138980;-69
2024/01/22 05:21:33;;;;;;;9.40;4.50;;;;;;;2.23;70.05;100836.20;111116;1208;98945;-68
2024/01/22 05:23:58;;;;;;;10.60;4.40;;;;;;;2.26;70.18;100830.73;111214;1207;99165;-68
2024/01/22 05:26:23;;;;;;;9.20;4.00;;;;;;;2.30;70.04;100829.98;111021;1209;138256;-68
2024/01/22 05:28:48;;;;;;;10.50;4.20;;;;;;;2.33;70.14;100834.73;111211;1207;98921;-69
2024/01/22 05:31:14;;;;;;;9.90;4.00;;;;;;;2.35;70.07;100832.95;111044;1207;139190;-68
2024/01/22 05:33:39;;;;;;;7.40;4.10;;;;;;;2.37;69.95;100829.23;111094;1206;98958;-68
2024/01/22 05:36:06;;;;;;;9.80;4.90;;;;;;;2.38;69.91;100829.58;111239;1207;99021;-68
2024/01/22 05:38:31;;;;;;;7.00;3.80;;;;;;;2.39;70.14;100824.29;110996;1209;138492;-69
2024/01/22 05:40:57;;;;;;;9.40;4.10;;;;;;;2.40;70.07;100814.06;111171;1208;99680;-68
2024/01/22 05:43:22;;;;;;;14.40;4.50;;;;;;;2.40;70.04;100817.77;111093;1206;137973;-68
2024/01/22 05:45:47;;;;;;;8.20;3.90;;;;;;;2.40;70.02;100809.48;111151;1206;98811;-68
2024/01/22 05:48:13;;;;;;;10.40;4.00;;;;;;;2.41;70.00;100811.23;111184;1206;99085;-68
2024/01/22 05:50:38;;;;;;;7.50;3.40;;;;;;;2.41;69.85;100813.17;110966;1204;138381;-68
2024/01/22 05:53:03;;;;;;;10.80;4.90;;;;;;;2.41;70.08;100808.76;111140;1208;98993;-68
2024/01/22 05:55:29;;;;;;;12.90;4.30;;;;;;;2.41;69.97;100804.34;111083;1208;137991;-68
2024/01/22 05:57:55;;;;;;;7.50;3.70;;;;;;;2.42;70.16;100800.98;111199;1206;98936;-69
2024/01/22 06:00:20;;;;;;;13.00;5.20;;;;;;;2.43;69.89;100796.58;111126;1206;99101;-72
2024/01/22 06:02:46;;;;;;;10.50;4.40;;;;;;;2.43;69.92;100792.52;110979;1208;138217;-69
2024/01/22 06:05:12;;;;;;;13.10;3.90;;;;;;;2.44;69.81;100787.23;111298;1206;99069;-69
2024/01/22 06:07:38;;;;;;;9.70;3.90;;;;;;;2.43;69.97;100778.23;111107;1206;138116;-69
2024/01/22 06:10:06;;;;;;;9.40;3.90;;;;;;;2.43;69.81;100783.87;111095;1205;98980;-69
2024/01/22 06:12:34;;;;;;;13.60;4.20;;;;;;;2.42;69.82;100770.30;111153;1208;97918;-69
2024/01/22 06:14:59;;;;;;;9.50;4.30;;;;;;;2.43;69.87;100765.89;111103;1206;137772;-68
2024/01/22 06:17:30;;;;;;;9.20;3.60;;;;;;;2.43;69.79;100751.77;111068;1208;100426;-69
2024/01/22 06:19:57;;;;;;;7.60;3.80;;;;;;;2.44;69.86;100742.42;110902;1208;137863;-68
2024/01/22 06:22:22;;;;;;;11.20;4.00;;;;;;;2.44;70.02;100729.90;111119;1206;98928;-69
2024/01/22 06:24:47;;;;;;;11.70;4.90;;;;;;;2.44;69.67;100723.55;111065;1206;139525;-69
2024/01/22 06:27:13;;;;;;;10.20;4.50;;;;;;;2.44;69.69;100722.67;111128;1206;99002;-69
2024/01/22 06:29:38;;;;;;;10.20;4.20;;;;;;;2.44;69.78;100714.56;111044;1206;99047;-69
2024/01/22 06:32:04;;;;;;;12.10;5.50;;;;;;;2.46;69.81;100706.61;111025;1209;139698;-69
2024/01/22 06:34:29;;;;;;;11.60;4.20;;;;;;;2.47;69.73;100699.19;111192;1206;99163;-69
2024/01/22 06:36:55;;;;;;;9.50;4.40;;;;;;;2.49;69.73;100692.65;111083;1209;139738;-69
2024/01/22 06:39:20;;;;;;;10.40;4.40;;;;;;;2.50;69.68;100693.15;111087;1208;99083;-69
2024/01/22 06:41:45;;;;;;;11.00;4.50;;;;;;;2.52;69.44;100677.61;111096;1218;99038;-70
2024/01/22 06:44:10;;;;;;;14.20;5.50;;;;;;;2.54;69.68;100679.89;111093;1208;140136;-69
2024/01/22 06:46:35;;;;;;;11.10;5.30;;;;;;;2.58;69.68;100675.97;111067;1206;98238;-69
2024/01/22 06:49:01;;;;;;;12.80;4.10;;;;;;;2.59;69.70;100671.02;111080;1206;137987;-69
2024/01/22 06:51:28;;;;;;;12.10;4.60;;;;;;;2.60;69.53;100656.88;111079;1208;99018;-70
2024/01/22 06:53:53;;;;;;;7.90;3.70;;;;;;;2.61;69.61;100645.03;111094;1206;97871;-69
2024/01/22 06:56:18;;;;;;;10.70;3.90;;;;;;;2.62;69.51;100634.79;111055;1208;138840;-70
2024/01/22 06:58:43;;;;;;;10.30;4.30;;;;;;;2.61;69.83;100632.16;111092;1208;97797;-70
2024/01/22 07:01:09;;;;;;;10.80;4.10;;;;;;;2.62;69.67;100638.31;111022;1209;138933;-69
2024/01/22 07:03:35;;;;;;;8.10;4.20;;;;;;;2.61;69.47;100631.27;111145;1206;102130;-70
2024/01/22 07:06:01;;;;;;;9.90;4.10;;;;;;;2.61;69.47;100622.45;111158;1208;98954;-70
2024/01/22 07:08:26;;;;;;;12.40;4.40;;;;;;;2.63;69.74;100613.61;110996;1208;138497;-70
2024/01/22 07:10:51;;;;;;;7.10;3.80;;;;;;;2.65;69.65;100603.88;111292;1206;98919;-70
2024/01/22 07:13:16;;;;;;;8.40;4.40;;;;;;;2.67;69.57;100587.80;111078;1208;138615;-70
2024/01/22 07:15:42;;;;;;;11.70;4.60;;;;;;;2.70;69.63;100586.54;111141;1205;98919;-69
2024/01/22 07:18:08;;;;;;;14.30;4.60;;;;;;;2.71;69.73;100580.70;111170;1208;99852;-69
2024/01/22 07:20:33;;;;;;;12.40;5.20;;;;;;;2.72;69.69;100579.09;110974;1208;138753;-69
2024/01/22 07:22:59;;;;;;;12.70;5.00;;;;;;;2.74;69.69;100577.14;111213;1208;98971;-69
2024/01/22 07:25:25;;;;;;;9.40;4.50;;;;;;;2.77;69.61;100573.75;110974;1209;138123;-69
2024/01/22 07:27:50;;;;;;;12.10;5.10;;;;;;;2.79;69.64;100577.08;111161;1208;99138;-68
2024/01/22 07:30:16;;;;;;;12.20;5.20;;;;;;;2.81;69.54;100567.34;111181;1206;99065;-69
2024/01/22 07:32:42;;;;;;;14.00;5.20;;;;;;;2.81;69.69;100563.98;110985;1222;139010;-69
2024/01/22 07:35:10;;;;;;;12.90;6.00;;;;;;;2.82;69.64;100556.39;111228;1208;99006;-69
2024/01/22 07:37:37;;;;;;;13.90;5.50;;;;;;;2.82;69.58;100552.14;111188;1205;140113;-69
2024/01/22 07:40:09;;;;;;;13.30;5.60;;;;;;;2.85;69.64;100557.23;111179;1209;98918;-69
2024/01/22 07:42:35;;;;;;;17.90;6.40;;;;;;;2.88;69.79;100547.48;111118;1205;106520;-69
2024/01/22 07:45:01;;;;;;;18.30;5.20;;;;;;;2.91;69.82;100549.55;111009;1206;139319;-69
2024/01/22 07:47:29;;;;;;;12.20;5.30;;;;;;;2.96;69.75;100542.09;111204;1205;98970;-68
2024/01/22 07:49:55;;;;;;;16.70;5.00;;;;;;;3.00;69.77;100533.55;110981;1205;138731;-68
2024/01/22 07:52:22;;;;;;;7.80;4.40;;;;;;;3.05;69.72;100528.89;111299;1208;98936;-69
2024/01/22 07:54:48;;;;;;;12.80;5.30;;;;;;;3.08;69.88;100518.25;111049;1206;138521;-68
2024/01/22 07:57:14;;;;;;;11.30;4.90;;;;;;;3.10;69.74;100515.39;110995;1206;99183;-69
2024/01/22 07:59:39;;;;;;;11.10;5.00;;;;;;;3.14;69.84;100516.04;111087;1209;99101;-66
2024/01/22 08:02:06;;;;;;;11.90;4.80;;;;;;;3.18;69.74;100515.63;110901;1208;139406;-67
2024/01/22 08:04:33;;;;;;;11.70;4.70;;;;;;;3.20;69.77;100508.00;113373;1205;96825;-68
2024/01/22 08:07:00;;;;;;;12.80;4.70;;;;;;;3.21;69.69;100501.81;113183;1204;139511;-68
2024/01/22 08:09:26;;;;;;;11.20;4.50;;;;;;;3.24;69.63;100510.06;110831;1218;100103;-70
2024/01/22 08:11:52;;;;;;;11.80;5.30;;;;;;;3.27;69.90;100499.23;110970;1209;99006;-68
2024/01/22 08:14:17;;;;;;;12.90;4.60;;;;;;;3.30;70.04;100497.61;110894;1206;139212;-68
2024/01/22 08:16:44;;;;;;;9.50;4.60;;;;;;;3.35;69.89;100481.45;110997;1207;98966;-69
2024/01/22 08:19:10;;;;;;;24.70;7.30;;;;;;;3.38;69.87;100474.34;110915;1208;138125;-71
2024/01/22 08:21:36;;;;;;;19.30;5.10;;;;;;;3.41;69.79;100472.70;111132;1221;99351;-71
2024/01/22 08:24:01;;;;;;;11.90;4.70;;;;;;;3.44;69.83;100470.52;110934;1218;98918;-71
2024/01/22 08:26:26;;;;;;;11.20;4.90;;;;;;;3.48;69.98;100451.37;110856;1208;138923;-70
2024/01/22 08:28:51;;;;;;;15.30;5.20;;;;;;;3.52;70.08;100456.09;111084;1206;98960;-71
2024/01/22 08:31:17;;;;;;;14.50;4.90;;;;;;;3.53;69.99;100455.00;110876;1209;139454;-70
2024/01/22 08:33:42;;;;;;;14.50;6.10;;;;;;;3.55;69.96;100465.73;111074;1216;99022;-71
2024/01/22 08:36:07;;;;;;;11.10;4.30;;;;;;;3.56;69.85;100459.00;110998;1208;99792;-71
2024/01/22 08:38:33;;;;;;;10.20;4.80;;;;;;;3.57;69.88;100468.00;110918;1208;139754;-71
2024/01/22 08:40:59;;;;;;;10.00;4.40;;;;;;;3.59;70.00;100488.81;110970;1209;99037;-71
2024/01/22 08:43:24;;;;;;;11.40;4.50;;;;;;;3.63;69.99;100474.45;110873;1209;139964;-70
2024/01/22 08:45:49;;;;;;;18.30;5.10;;;;;;;3.67;69.92;100489.02;111090;1208;99692;-70
2024/01/22 08:48:15;;;;;;;11.80;5.10;;;;;;;3.69;69.83;100490.94;110957;1206;99048;-70
2024/01/22 08:50:40;;;;;;;14.60;4.90;;;;;;;3.69;69.83;100492.70;110975;1206;137815;-71
2024/01/22 08:53:05;;;;;;;16.40;5.40;;;;;;;3.69;69.90;100493.23;111093;1208;98941;-70
2024/01/22 08:55:31;;;;;;;14.60;5.70;;;;;;;3.69;69.71;100481.92;110978;1208;138358;-70
2024/01/22 08:57:56;;;;;;;13.60;5.40;;;;;;;3.70;69.75;100472.36;111324;1205;97787;-70
2024/01/22 09:00:23;;;;;;;14.70;6.00;;;;;;;3.72;69.73;100480.80;110974;1204;99517;-70
2024/01/22 09:02:49;;;;;;;17.90;6.20;;;;;;;3.73;69.71;100465.42;111680;1206;137914;-70
2024/01/22 09:05:15;;;;;;;14.10;6.90;;;;;;;3.74;69.76;100457.45;111216;1208;99070;-69
2024/01/22 09:07:41;;;;;;;12.70;5.90;;;;;;;3.75;69.84;100470.14;110982;1208;138062;-70
2024/01/22 09:10:07;;;;;;;22.50;6.10;;;;;;;3.75;69.77;100469.27;111142;1208;101889;-69
2024/01/22 09:12:34;;;;;;;19.40;6.60;;;;;;;3.76;69.66;100463.95;111186;1205;98925;-72
2024/01/22 09:15:03;;;;;;;24.20;7.60;;;;;;;3.77;69.59;100456.33;111025;1205;138222;-72
2024/01/22 09:17:30;;;;;;;20.50;7.30;;;;;;;3.79;69.55;100457.89;111135;1221;100389;-71
2024/01/22 09:19:56;;;;;;;20.00;7.90;;;;;;;3.79;69.53;100454.52;110991;1208;138393;-70
2024/01/22 09:22:22;;;;;;;21.20;8.80;;;;;;;3.80;69.51;100461.58;111069;1205;98992;-70
2024/01/22 09:24:47;;;;;;;27.50;8.00;;;;;;;3.80;69.62;100450.79;111178;1208;98982;-70
2024/01/22 09:27:13;;;;;;;19.60;7.30;;;;;;;3.81;69.53;100445.66;111097;1206;138203;-71
2024/01/22 09:29:41;;;;;;;18.40;7.10;;;;;;;3.81;69.68;100438.22;111111;1208;98965;-70
2024/01/22 09:32:10;;;;;;;17.70;7.70;;;;;;;3.82;69.47;100429.20;111033;1206;139019;-70
2024/01/22 09:34:39;;;;;;;18.10;6.90;;;;;;;3.82;69.46;100423.89;111128;1222;98926;-69
2024/01/22 09:37:05;;;;;;;19.30;7.30;;;;;;;3.81;69.43;100420.89;110978;1221;139222;-68
2024/01/22 09:39:31;;;;;;;15.60;6.60;;;;;;;3.82;69.48;100409.21;111247;1208;99071;-69
2024/01/22 09:41:58;;;;;;;14.60;6.70;;;;;;;3.83;69.37;100408.66;111094;1206;100026;-70
2024/01/22 09:44:24;;;;;;;17.00;6.30;;;;;;;3.85;69.45;100412.34;111211;1208;138650;-69
2024/01/22 09:46:50;;;;;;;17.70;6.00;;;;;;;3.85;69.56;100411.82;111165;1225;106397;-69
2024/01/22 09:49:16;;;;;;;18.70;6.60;;;;;;;3.84;69.51;100409.36;110977;1206;139595;-69
2024/01/22 09:51:45;;;;;;;21.50;10.40;;;;;;;3.86;69.38;100408.63;111112;1206;99076;-69
2024/01/22 09:54:18;;;;;;;26.30;11.50;;;;;;;3.87;69.50;100402.59;111254;1209;100017;-69
2024/01/22 09:56:50;;;;;;;24.30;11.30;;;;;;;3.89;69.38;100404.67;111081;1206;138309;-67
2024/01/22 09:59:18;;;;;;;13.90;5.90;;;;;;;3.90;69.47;100401.45;111225;1208;98993;-70
2024/01/22 10:01:49;;;;;;;20.30;6.80;;;;;;;3.92;69.58;100397.70;110982;1206;137888;-67
2024/01/22 10:04:15;;;;;;;18.80;7.20;;;;;;;3.95;69.41;100393.42;111224;1208;112972;-67
2024/01/22 10:06:41;;;;;;;17.40;7.30;;;;;;;3.98;69.39;100391.58;111235;1208;99018;-68
2024/01/22 10:09:07;;;;;;;11.90;5.70;;;;;;;4.01;69.44;100385.15;111017;1208;138491;-67
2024/01/22 10:11:32;;;;;;;16.90;6.40;;;;;;;4.04;69.54;100383.32;111127;1206;99015;-71
2024/01/22 10:13:58;;;;;;;19.90;7.40;;;;;;;4.08;69.53;100386.24;110957;1206;140064;-71
2024/01/22 10:16:26;;;;;;;13.20;5.50;;;;;;;4.12;69.57;100379.44;111128;1208;98941;-71
2024/01/22 10:19:04;;;;;;;15.00;5.80;;;;;;;4.15;69.74;100373.90;111063;1205;141976;-71
2024/01/22 10:21:29;;;;;;;12.90;5.90;;;;;;;4.18;69.64;100369.23;111122;1206;98943;-70
2024/01/22 10:24:08;;;;;;;12.90;5.40;;;;;;;4.20;69.43;100371.48;111176;1208;99034;-70
2024/01/22 10:26:35;;;;;;;14.80;6.70;;;;;;;4.22;69.52;100369.84;110775;1209;139718;-70
2024/01/22 10:29:15;;;;;;;17.30;6.70;;;;;;;4.24;69.68;100363.96;111169;1206;99703;-70
2024/01/22 10:31:57;;;;;;;15.10;6.00;;;;;;;4.26;69.59;100358.61;111889;1206;138158;-70
2024/01/22 10:34:31;;;;;;;17.70;6.50;;;;;;;4.28;69.65;100355.40;111028;1206;99090;-70
2024/01/22 10:37:06;;;;;;;16.70;5.80;;;;;;;4.30;69.63;100351.63;111235;1204;139101;-70
2024/01/22 10:39:32;;;;;;;18.70;7.20;;;;;;;4.34;69.55;100350.14;111106;1206;112757;-70
2024/01/22 10:42:08;;;;;;;13.40;5.90;;;;;;;4.37;69.60;100336.98;111118;1206;100326;-70
2024/01/22 10:44:35;;;;;;;13.10;5.90;;;;;;;4.38;69.61;100336.41;110926;1208;139101;-70
2024/01/22 10:47:03;;;;;;;16.90;6.50;;;;;;;4.39;69.73;100325.43;111080;1208;99040;-70
2024/01/22 10:49:29;;;;;;;15.60;6.10;;;;;;;4.40;69.74;100328.23;111079;1208;140051;-69
2024/01/22 10:51:57;;;;;;;18.00;7.30;;;;;;;4.41;69.49;100335.46;111153;1208;99456;-70
2024/01/22 10:54:27;;;;;;;18.00;7.30;;;;;;;4.43;69.65;100332.24;111082;1209;100943;-70
2024/01/22 10:57:09;;;;;;;28.30;6.70;;;;;;;4.44;69.75;100334.16;111138;1206;138079;-70
2024/01/22 10:59:36;;;;;;;;;;;;;;;4.44;69.65;100336.27;111069;1206;98964;-70
2024/01/22 11:02:04;;;;;;;19.10;7.10;;;;;;;4.43;69.72;100330.27;110996;1205;124085;-70
2024/01/22 11:04:34;;;;;;;19.30;7.60;;;;;;;4.44;69.75;100329.38;111212;1206;112235;-70
2024/01/22 11:07:05;;;;;;;35.40;9.20;;;;;;;4.45;70.12;100321.21;110969;1213;139700;-70
2024/01/22 11:09:32;;;;;;;26.40;8.40;;;;;;;4.47;69.98;100324.88;111052;1206;108231;-71